Time;durP1;ratioP1;P1;durP2;ratioP2;P2;SDS_P1;SDS_P2;PMS_P1;PMS_P2;Temp;Humidity;BMP_temperature;BMP_pressure;BME280_temperature;BME280_humidity;BME280_pressure;Samples;Min_cycle;Max_cycle;Signal;HPM_P1;HPM_P2
2021/06/08 00:02:14;;;;;;;0.10;0.10;;;18.80;66.40;;;;;;5052638;28;20175;-71
2021/06/08 00:04:41;;;;;;;0.20;0.20;;;18.70;66.30;;;;;;5053481;28;20045;-71
2021/06/08 00:07:07;;;;;;;0.20;0.20;;;18.70;66.40;;;;;;5053482;28;20049;-72
2021/06/08 00:09:33;;;;;;;0.10;0.10;;;18.70;66.50;;;;;;5053599;28;20052;-72
2021/06/08 00:12:00;;;;;;;0.20;0.20;;;18.70;66.60;;;;;;5053072;28;20049;-71
2021/06/08 00:14:26;;;;;;;0.10;0.10;;;18.70;66.50;;;;;;5053596;28;20044;-72
2021/06/08 00:16:52;;;;;;;0.20;0.20;;;18.70;66.60;;;;;;5053046;28;20188;-72
2021/06/08 00:19:19;;;;;;;0.20;0.20;;;18.70;66.60;;;;;;5053177;28;20045;-71
2021/06/08 00:21:45;;;;;;;0.10;0.10;;;18.60;66.50;;;;;;5053080;28;20416;-72
2021/06/08 00:24:12;;;;;;;0.20;0.20;;;18.60;66.60;;;;;;5045227;28;20049;-71
2021/06/08 00:26:38;;;;;;;0.10;0.10;;;18.60;66.80;;;;;;5052972;28;20052;-72
2021/06/08 00:29:05;;;;;;;0.20;0.20;;;18.60;66.80;;;;;;5053067;28;20081;-72
2021/06/08 00:31:31;;;;;;;0.28;0.28;;;18.60;66.90;;;;;;5053084;28;20586;-71
2021/06/08 00:33:57;;;;;;;0.10;0.10;;;18.50;67.20;;;;;;5052768;28;20510;-72
2021/06/08 00:36:24;;;;;;;0.10;0.10;;;18.50;67.00;;;;;;5052792;28;20072;-72
2021/06/08 00:38:50;;;;;;;0.10;0.10;;;18.40;67.00;;;;;;5052917;28;20128;-72
2021/06/08 00:41:19;;;;;;;0.20;0.20;;;18.40;67.00;;;;;;5052508;28;20053;-72
2021/06/08 00:43:46;;;;;;;0.20;0.20;;;18.40;67.00;;;;;;5052926;28;20546;-72
2021/06/08 00:46:12;;;;;;;0.10;0.10;;;18.40;67.10;;;;;;5052782;28;20118;-71
2021/06/08 00:48:38;;;;;;;0.17;0.17;;;18.40;67.10;;;;;;5047747;28;20077;-72
2021/06/08 00:51:05;;;;;;;0.10;0.10;;;18.40;67.10;;;;;;5044205;28;20049;-72
2021/06/08 00:53:31;;;;;;;0.30;0.30;;;18.30;68.00;;;;;;5052675;28;20041;-72
2021/06/08 00:55:57;;;;;;;0.10;0.10;;;18.30;67.10;;;;;;5050977;28;20060;-72
2021/06/08 00:58:24;;;;;;;0.15;0.13;;;18.30;67.20;;;;;;5052563;28;20041;-71
2021/06/08 01:00:50;;;;;;;0.17;0.17;;;18.20;67.10;;;;;;5052431;28;20432;-71
2021/06/08 01:03:17;;;;;;;0.10;0.10;;;18.20;67.20;;;;;;5052449;28;20057;-71
2021/06/08 01:05:43;;;;;;;0.13;0.13;;;18.20;67.30;;;;;;5052513;28;20131;-71
2021/06/08 01:08:11;;;;;;;0.20;0.20;;;18.20;67.40;;;;;;5052376;28;20511;-72
2021/06/08 01:10:37;;;;;;;0.15;0.15;;;18.20;67.50;;;;;;5052161;28;20138;-71
2021/06/08 01:13:04;;;;;;;0.28;0.20;;;18.10;67.70;;;;;;5052431;28;20052;-71
2021/06/08 01:15:30;;;;;;;0.20;0.20;;;18.10;67.70;;;;;;5034333;28;20055;-72
2021/06/08 01:17:57;;;;;;;0.20;0.20;;;18.10;67.70;;;;;;5052220;28;20083;-71
2021/06/08 01:20:23;;;;;;;0.22;0.10;;;18.10;68.00;;;;;;5051629;28;20146;-71
2021/06/08 01:22:50;;;;;;;0.20;0.20;;;18.10;68.00;;;;;;5051466;28;20053;-72
2021/06/08 01:25:16;;;;;;;0.10;0.10;;;18.10;68.10;;;;;;5051871;28;20174;-72
2021/06/08 01:27:43;;;;;;;0.20;0.20;;;18.10;68.10;;;;;;5052272;28;20049;-71
2021/06/08 01:30:10;;;;;;;0.40;0.25;;;18.10;68.10;;;;;;5051906;28;20049;-72
2021/06/08 01:32:41;;;;;;;0.10;0.10;;;18.10;68.40;;;;;;5051898;28;20044;-72
2021/06/08 01:35:09;;;;;;;0.40;0.40;;;18.10;68.70;;;;;;5035186;28;20042;-71
2021/06/08 01:37:38;;;;;;;0.30;0.30;;;18.10;68.70;;;;;;5031907;28;20421;-71
2021/06/08 01:40:07;;;;;;;0.20;0.20;;;18.00;69.20;;;;;;5031533;28;20049;-72
2021/06/08 01:42:35;;;;;;;0.20;0.17;;;18.00;69.50;;;;;;5030924;28;20556;-72
2021/06/08 01:45:03;;;;;;;0.15;0.15;;;18.00;69.30;;;;;;5031214;28;20056;-71
2021/06/08 01:47:29;;;;;;;0.20;0.20;;;18.00;69.20;;;;;;5031699;28;20057;-72
2021/06/08 01:49:55;;;;;;;0.20;0.20;;;18.00;69.00;;;;;;5031306;28;20045;-71
2021/06/08 01:52:31;;;;;;;0.22;0.10;;;18.00;69.00;;;;;;5034770;28;20044;-72
2021/06/08 01:55:15;;;;;;;0.15;0.15;;;18.00;69.00;;;;;;5033099;28;20514;-71
2021/06/08 01:57:46;;;;;;;0.20;0.10;;;18.00;69.00;;;;;;5031708;28;20041;-72
2021/06/08 02:00:26;;;;;;;0.32;0.32;;;18.00;68.90;;;;;;5031287;28;20666;-72
2021/06/08 02:03:21;;;;;;;0.30;0.30;;;18.10;68.90;;;;;;5031782;28;20060;-71
2021/06/08 02:05:53;;;;;;;0.20;0.20;;;18.00;68.90;;;;;;5021277;28;20061;-72
2021/06/08 02:09:02;;;;;;;0.20;0.20;;;18.00;68.80;;;;;;5031555;28;20049;-72
2021/06/08 02:11:59;;;;;;;0.20;0.20;;;18.10;68.80;;;;;;4931999;29;20135;-72
2021/06/08 02:14:38;;;;;;;0.20;0.20;;;18.00;68.90;;;;;;4912651;29;20055;-72
2021/06/08 02:17:15;;;;;;;0.20;0.20;;;18.00;68.80;;;;;;4929937;29;20071;-72
2021/06/08 02:19:44;;;;;;;0.20;0.20;;;18.00;68.80;;;;;;4947071;29;20078;-72
2021/06/08 02:22:12;;;;;;;0.40;0.20;;;18.00;68.90;;;;;;4948774;29;20521;-71
2021/06/08 02:24:40;;;;;;;0.20;0.20;;;17.90;69.50;;;;;;4964038;28;20061;-72
2021/06/08 02:27:10;;;;;;;0.30;0.30;;;17.90;69.80;;;;;;4947593;28;20051;-71
2021/06/08 02:29:38;;;;;;;0.30;0.30;;;17.90;70.20;;;;;;4951263;29;20134;-71
2021/06/08 02:32:07;;;;;;;0.22;0.22;;;17.90;69.90;;;;;;4950720;29;20047;-72
2021/06/08 02:34:35;;;;;;;0.22;0.22;;;17.90;69.70;;;;;;4952941;28;20047;-72
2021/06/08 02:37:03;;;;;;;0.20;0.20;;;17.90;69.60;;;;;;4954775;29;20063;-72
2021/06/08 02:39:30;;;;;;;0.15;0.15;;;17.90;69.60;;;;;;4954655;29;20195;-72
2021/06/08 02:41:58;;;;;;;0.25;0.25;;;17.90;69.40;;;;;;4987101;28;20053;-71
2021/06/08 02:44:26;;;;;;;0.10;0.10;;;17.90;69.40;;;;;;5050864;28;20262;-72
2021/06/08 02:46:55;;;;;;;0.28;0.28;;;17.90;69.50;;;;;;5034864;28;20045;-72
2021/06/08 02:49:22;;;;;;;0.28;0.20;;;17.80;69.30;;;;;;5034982;28;20083;-71
2021/06/08 02:51:49;;;;;;;0.20;0.20;;;17.80;69.30;;;;;;5034970;28;20085;-72
2021/06/08 02:54:17;;;;;;;0.10;0.10;;;17.80;69.40;;;;;;5035497;28;20053;-71
2021/06/08 02:56:43;;;;;;;0.20;0.20;;;17.80;69.30;;;;;;5034963;28;20041;-72
2021/06/08 02:59:11;;;;;;;0.20;0.20;;;17.80;69.40;;;;;;5034581;28;20045;-71
2021/06/08 03:01:43;;;;;;;0.25;0.25;;;17.80;69.50;;;;;;5034743;28;20179;-71
2021/06/08 03:04:12;;;;;;;0.20;0.20;;;17.80;69.60;;;;;;5034833;28;20128;-71
2021/06/08 03:06:56;;;;;;;0.20;0.20;;;17.70;69.50;;;;;;5016450;28;20056;-72
2021/06/08 03:09:40;;;;;;;0.10;0.10;;;17.70;69.50;;;;;;5049852;28;20049;-72
2021/06/08 03:12:10;;;;;;;0.28;0.28;;;17.70;69.40;;;;;;5054182;28;20132;-71
2021/06/08 03:14:39;;;;;;;0.10;0.10;;;17.70;69.40;;;;;;5053414;28;20122;-71
2021/06/08 03:17:07;;;;;;;0.10;0.10;;;17.70;69.40;;;;;;5039551;28;20138;-72
2021/06/08 03:19:35;;;;;;;0.20;0.20;;;17.70;69.40;;;;;;5034760;28;20054;-71
2021/06/08 03:22:09;;;;;;;0.20;0.20;;;17.70;69.40;;;;;;5034643;28;20511;-72
2021/06/08 03:24:39;;;;;;;0.38;0.38;;;17.70;69.40;;;;;;5036473;28;20050;-72
2021/06/08 03:27:06;;;;;;;0.20;0.20;;;17.60;69.70;;;;;;5042515;28;20398;-72
2021/06/08 03:29:35;;;;;;;0.20;0.20;;;17.60;69.70;;;;;;5034410;28;20057;-72
2021/06/08 03:32:03;;;;;;;0.20;0.20;;;17.60;69.70;;;;;;5038887;28;20046;-71
2021/06/08 03:34:32;;;;;;;0.13;0.10;;;17.60;69.80;;;;;;5043615;28;20134;-71
2021/06/08 03:37:00;;;;;;;0.30;0.30;;;17.50;69.80;;;;;;5034102;28;20053;-71
2021/06/08 03:39:28;;;;;;;0.20;0.20;;;17.50;69.80;;;;;;5040866;28;20523;-72
2021/06/08 03:41:56;;;;;;;0.22;0.20;;;17.50;69.80;;;;;;5038053;28;20100;-72
2021/06/08 03:44:23;;;;;;;0.13;0.13;;;17.50;69.80;;;;;;5015495;28;20042;-72
2021/06/08 03:46:51;;;;;;;0.30;0.30;;;17.50;69.70;;;;;;5033545;28;20056;-72
2021/06/08 03:49:19;;;;;;;0.20;0.20;;;17.50;69.70;;;;;;5033793;28;20161;-71
2021/06/08 03:51:51;;;;;;;0.10;0.10;;;17.50;69.80;;;;;;5041061;28;20568;-71
2021/06/08 03:54:18;;;;;;;0.30;0.30;;;17.50;69.80;;;;;;5051711;28;20045;-71
2021/06/08 03:56:48;;;;;;;0.30;0.30;;;17.50;69.80;;;;;;5051585;28;20087;-72
2021/06/08 03:59:15;;;;;;;0.30;0.30;;;17.50;69.90;;;;;;5049030;28;20134;-71
2021/06/08 04:01:43;;;;;;;0.20;0.20;;;17.50;69.80;;;;;;5020119;28;20477;-72
2021/06/08 04:04:10;;;;;;;0.30;0.30;;;17.40;69.60;;;;;;5033557;28;20045;-72
2021/06/08 04:06:39;;;;;;;0.20;0.20;;;17.40;69.70;;;;;;5033555;28;20060;-71
2021/06/08 04:09:07;;;;;;;0.10;0.10;;;17.40;69.70;;;;;;5033965;28;20045;-71
2021/06/08 04:11:35;;;;;;;0.10;0.10;;;17.40;69.70;;;;;;5033597;28;20049;-71
2021/06/08 04:14:02;;;;;;;0.35;0.22;;;17.30;69.80;;;;;;5033391;28;20146;-71
2021/06/08 04:16:29;;;;;;;0.20;0.20;;;17.40;69.90;;;;;;5033058;28;20052;-71
2021/06/08 04:18:56;;;;;;;0.10;0.10;;;17.40;69.80;;;;;;5033637;28;20122;-71
2021/06/08 04:21:27;;;;;;;0.20;0.20;;;17.30;69.70;;;;;;5032885;28;20146;-72
2021/06/08 04:24:03;;;;;;;0.35;0.30;;;17.30;69.50;;;;;;5035599;28;20045;-72
2021/06/08 04:26:29;;;;;;;0.25;0.20;;;17.30;69.50;;;;;;5032870;28;20049;-72
2021/06/08 04:28:56;;;;;;;0.20;0.20;;;17.30;69.40;;;;;;5033176;28;20132;-71
2021/06/08 04:31:24;;;;;;;0.30;0.30;;;17.30;69.40;;;;;;5014629;28;20505;-72
2021/06/08 04:33:51;;;;;;;0.10;0.10;;;17.30;69.40;;;;;;5032978;28;20045;-71
2021/06/08 04:36:18;;;;;;;0.10;0.10;;;17.30;69.40;;;;;;5033397;28;20046;-71
2021/06/08 04:38:45;;;;;;;0.30;0.20;;;17.30;69.40;;;;;;5033120;28;20041;-71
2021/06/08 04:41:13;;;;;;;0.30;0.30;;;17.30;69.40;;;;;;5032752;28;20602;-71
2021/06/08 04:43:40;;;;;;;0.10;0.10;;;17.30;69.50;;;;;;5032604;28;20057;-71
2021/06/08 04:46:11;;;;;;;0.47;0.32;;;17.30;69.50;;;;;;5032820;28;20335;-72
2021/06/08 04:48:38;;;;;;;0.13;0.13;;;17.30;69.50;;;;;;5014496;28;20053;-71
2021/06/08 04:51:05;;;;;;;0.20;0.20;;;17.20;69.40;;;;;;5032561;28;20054;-71
2021/06/08 04:53:31;;;;;;;0.15;0.15;;;17.20;69.40;;;;;;5038692;28;20049;-71
2021/06/08 04:55:58;;;;;;;0.20;0.20;;;17.20;69.50;;;;;;5032091;28;20053;-71
2021/06/08 04:58:25;;;;;;;0.20;0.20;;;17.20;69.50;;;;;;5032408;28;20080;-71
2021/06/08 05:00:55;;;;;;;0.15;0.15;;;17.20;69.60;;;;;;5034580;28;20042;-71
2021/06/08 05:03:27;;;;;;;0.22;0.22;;;17.20;69.80;;;;;;5032229;28;20042;-71
2021/06/08 05:05:57;;;;;;;0.20;0.20;;;17.20;69.90;;;;;;5032318;28;20116;-72
2021/06/08 05:08:43;;;;;;;0.15;0.15;;;17.20;70.00;;;;;;5035567;28;20124;-72
2021/06/08 05:11:18;;;;;;;0.20;0.20;;;17.20;70.10;;;;;;5028946;28;20505;-71
2021/06/08 05:13:49;;;;;;;0.20;0.20;;;17.30;70.20;;;;;;5031743;28;20041;-71
2021/06/08 05:16:16;;;;;;;0.20;0.20;;;17.20;70.20;;;;;;5032345;28;20050;-71
2021/06/08 05:18:46;;;;;;;0.22;0.22;;;17.30;70.30;;;;;;5031852;28;20073;-71
2021/06/08 05:21:16;;;;;;;0.20;0.20;;;17.30;70.40;;;;;;5032310;28;20496;-71
2021/06/08 05:23:43;;;;;;;0.20;0.20;;;17.40;70.50;;;;;;5032190;28;20053;-71
2021/06/08 05:26:13;;;;;;;0.20;0.20;;;17.30;70.50;;;;;;5025576;28;20053;-74
2021/06/08 05:28:41;;;;;;;0.10;0.10;;;17.40;70.50;;;;;;5022703;28;20049;-72
2021/06/08 05:31:08;;;;;;;0.10;0.10;;;17.40;70.60;;;;;;5041652;28;20053;-72
2021/06/08 05:33:34;;;;;;;0.30;0.30;;;17.40;70.50;;;;;;5031496;28;20042;-72
2021/06/08 05:36:01;;;;;;;0.13;0.13;;;17.40;70.50;;;;;;5031639;28;20125;-72
2021/06/08 05:38:39;;;;;;;0.10;0.10;;;17.50;70.60;;;;;;5012167;28;20050;-72
2021/06/08 05:41:07;;;;;;;0.10;0.10;;;17.50;70.60;;;;;;5022373;28;20050;-72
2021/06/08 05:43:35;;;;;;;0.22;0.22;;;17.50;70.60;;;;;;5018410;28;20056;-74
2021/06/08 05:46:03;;;;;;;0.20;0.20;;;17.50;70.70;;;;;;5020853;28;20132;-72
2021/06/08 05:48:29;;;;;;;0.00;0.00;;;17.60;70.70;;;;;;5018536;28;20053;-73
2021/06/08 05:50:56;;;;;;;0.20;0.20;;;17.60;70.60;;;;;;5019994;28;20045;-74
2021/06/08 05:53:24;;;;;;;0.10;0.10;;;17.60;70.60;;;;;;5019484;28;20494;-73
2021/06/08 05:55:53;;;;;;;0.32;0.20;;;17.70;70.60;;;;;;5014210;28;20049;-72
2021/06/08 05:58:24;;;;;;;0.17;0.17;;;17.70;70.70;;;;;;5027270;28;20090;-72
2021/06/08 06:00:52;;;;;;;0.10;0.10;;;17.70;70.70;;;;;;5028574;28;20068;-72
2021/06/08 06:03:19;;;;;;;0.10;0.10;;;17.80;70.80;;;;;;5017096;28;20497;-71
2021/06/08 06:05:46;;;;;;;0.20;0.20;;;17.80;70.60;;;;;;5012373;28;20046;-71
2021/06/08 06:08:13;;;;;;;0.10;0.10;;;17.90;70.50;;;;;;5015086;28;20497;-72
2021/06/08 06:10:40;;;;;;;0.20;0.10;;;17.90;70.40;;;;;;5030908;28;20132;-72
2021/06/08 06:13:09;;;;;;;0.10;0.10;;;18.00;70.40;;;;;;5036546;28;20042;-72
2021/06/08 06:15:37;;;;;;;0.15;0.10;;;18.00;70.40;;;;;;5031713;28;20041;-72
2021/06/08 06:18:04;;;;;;;0.10;0.10;;;18.10;70.40;;;;;;5031196;28;20420;-72
2021/06/08 06:20:30;;;;;;;0.10;0.10;;;18.10;70.20;;;;;;5015273;28;20053;-72
2021/06/08 06:22:57;;;;;;;0.10;0.10;;;18.20;70.20;;;;;;5038055;28;20478;-72
2021/06/08 06:25:24;;;;;;;0.20;0.20;;;18.20;70.10;;;;;;5031055;28;20041;-72
2021/06/08 06:27:51;;;;;;;0.10;0.10;;;18.30;70.00;;;;;;5031826;28;20053;-71
2021/06/08 06:30:18;;;;;;;0.20;0.10;;;18.30;69.90;;;;;;5031956;28;20048;-72
2021/06/08 06:32:45;;;;;;;0.00;0.00;;;18.30;69.80;;;;;;5040967;28;20046;-72
2021/06/08 06:35:12;;;;;;;0.10;0.10;;;18.40;69.70;;;;;;5031674;28;20515;-71
2021/06/08 06:37:40;;;;;;;0.03;0.03;;;18.40;69.50;;;;;;5032051;28;20052;-71
2021/06/08 06:40:16;;;;;;;0.20;0.20;;;18.50;69.50;;;;;;5045109;28;20056;-71
2021/06/08 06:42:46;;;;;;;0.10;0.10;;;18.50;69.30;;;;;;5021094;28;20531;-71
2021/06/08 06:45:19;;;;;;;0.10;0.10;;;18.60;69.20;;;;;;5038675;28;20087;-71
2021/06/08 06:47:46;;;;;;;0.10;0.10;;;18.60;69.00;;;;;;5040152;28;20131;-71
2021/06/08 06:50:13;;;;;;;0.22;0.22;;;18.70;68.90;;;;;;5031789;28;20058;-71
2021/06/08 06:52:40;;;;;;;0.10;0.10;;;18.70;68.90;;;;;;5030274;28;20064;-72
2021/06/08 06:55:09;;;;;;;0.10;0.10;;;18.70;68.50;;;;;;5034686;28;20408;-72
2021/06/08 06:57:37;;;;;;;0.10;0.10;;;18.80;68.50;;;;;;5037244;28;20052;-70
2021/06/08 07:00:04;;;;;;;0.10;0.10;;;18.80;68.50;;;;;;5027620;28;20135;-71
2021/06/08 07:02:32;;;;;;;0.10;0.10;;;18.90;68.40;;;;;;5025340;28;20054;-70
2021/06/08 07:04:59;;;;;;;0.70;0.13;;;19.00;68.40;;;;;;5013187;28;20056;-71
2021/06/08 07:07:26;;;;;;;0.10;0.10;;;19.00;68.00;;;;;;5018708;28;20143;-70
2021/06/08 07:09:52;;;;;;;0.10;0.10;;;19.00;67.80;;;;;;5015785;28;20041;-70
2021/06/08 07:12:21;;;;;;;0.08;0.08;;;19.10;67.80;;;;;;5030750;28;20045;-70
2021/06/08 07:14:48;;;;;;;0.10;0.10;;;19.20;68.00;;;;;;5025701;28;20045;-69
2021/06/08 07:17:16;;;;;;;0.15;0.10;;;19.30;67.90;;;;;;5015235;28;20048;-69
2021/06/08 07:19:44;;;;;;;0.10;0.10;;;19.40;67.80;;;;;;5014378;28;20061;-69
2021/06/08 07:22:10;;;;;;;0.20;0.20;;;19.50;67.50;;;;;;5034088;28;20408;-69
2021/06/08 07:24:41;;;;;;;0.10;0.10;;;19.60;67.30;;;;;;5031084;28;20061;-70
2021/06/08 07:27:13;;;;;;;0.15;0.10;;;19.70;67.40;;;;;;5024936;28;20611;-69
2021/06/08 07:29:43;;;;;;;0.10;0.10;;;19.90;67.20;;;;;;5024868;28;20121;-69
2021/06/08 07:32:21;;;;;;;0.20;0.10;;;19.90;66.60;;;;;;5018803;28;20045;-69
2021/06/08 07:34:50;;;;;;;0.60;0.17;;;20.00;66.50;;;;;;5027902;28;20539;-69
2021/06/08 07:37:21;;;;;;;0.73;0.20;;;20.10;66.40;;;;;;5019334;28;20042;-69
2021/06/08 07:40:12;;;;;;;0.10;0.10;;;20.20;66.20;;;;;;5014654;28;20093;-69
2021/06/08 07:42:41;;;;;;;;;;;20.30;65.80;;;;;;5016353;28;20509;-69
2021/06/08 07:45:10;;;;;;;0.13;0.10;;;20.40;64.90;;;;;;5022251;28;19921;-70
2021/06/08 07:47:38;;;;;;;0.20;0.15;;;20.40;64.80;;;;;;5019208;28;20072;-71
2021/06/08 07:50:08;;;;;;;0.10;0.10;;;20.40;64.60;;;;;;5013920;28;20050;-71
2021/06/08 07:52:35;;;;;;;0.20;0.20;;;20.40;64.50;;;;;;5016676;28;20064;-71
2021/06/08 07:55:05;;;;;;;0.20;0.20;;;20.50;64.70;;;;;;5013634;28;20046;-71
2021/06/08 07:57:31;;;;;;;0.20;0.20;;;20.60;64.70;;;;;;5012833;28;20515;-70
2021/06/08 07:59:58;;;;;;;0.90;0.20;;;20.70;64.50;;;;;;5018846;28;20049;-71
2021/06/08 08:02:25;;;;;;;0.28;0.20;;;20.70;63.00;;;;;;5013543;28;20120;-70
2021/06/08 08:04:52;;;;;;;0.17;0.10;;;20.70;62.60;;;;;;5031025;28;20068;-70
2021/06/08 08:07:24;;;;;;;0.20;0.20;;;20.80;62.80;;;;;;5039142;28;20041;-69
2021/06/08 08:09:51;;;;;;;0.10;0.10;;;20.80;62.90;;;;;;5032652;28;20056;-69
2021/06/08 08:12:18;;;;;;;0.10;0.10;;;20.80;61.80;;;;;;5033228;28;20072;-69
2021/06/08 08:14:47;;;;;;;0.35;0.30;;;20.90;62.00;;;;;;5029912;28;20859;-70
2021/06/08 08:17:15;;;;;;;0.80;0.30;;;21.00;62.50;;;;;;5032381;28;20045;-70
2021/06/08 08:19:42;;;;;;;0.45;0.20;;;21.10;61.20;;;;;;5025132;28;20525;-70
2021/06/08 08:22:09;;;;;;;0.32;0.10;;;21.10;60.60;;;;;;5028096;28;20042;-70
2021/06/08 08:24:35;;;;;;;0.25;0.20;;;21.20;60.80;;;;;;5021298;28;20046;-70
2021/06/08 08:27:04;;;;;;;0.40;0.10;;;21.30;60.60;;;;;;5028309;28;20053;-70
2021/06/08 08:29:31;;;;;;;0.30;0.10;;;21.40;59.90;;;;;;5033045;28;20432;-69
2021/06/08 08:31:58;;;;;;;0.10;0.10;;;21.40;59.50;;;;;;5031647;28;20131;-70
2021/06/08 08:34:24;;;;;;;0.80;0.22;;;21.40;60.00;;;;;;5031689;28;20049;-70
2021/06/08 08:36:51;;;;;;;0.40;0.20;;;21.40;60.00;;;;;;5032347;28;20060;-70
2021/06/08 08:39:17;;;;;;;0.65;0.13;;;21.60;59.80;;;;;;5031362;28;20038;-69
2021/06/08 08:41:44;;;;;;;0.20;0.20;;;21.60;59.60;;;;;;5032770;28;20050;-70
2021/06/08 08:44:11;;;;;;;0.57;0.30;;;21.80;59.50;;;;;;5032651;28;20076;-70
2021/06/08 08:46:38;;;;;;;0.20;0.13;;;21.80;59.20;;;;;;5015856;28;20184;-70
2021/06/08 08:49:05;;;;;;;0.68;0.20;;;21.90;59.30;;;;;;5020533;28;20061;-69
2021/06/08 08:51:33;;;;;;;0.25;0.20;;;22.10;59.20;;;;;;5032350;28;20402;-70
2021/06/08 08:54:00;;;;;;;0.10;0.10;;;22.20;58.60;;;;;;5032096;28;20509;-70
2021/06/08 08:56:38;;;;;;;2.85;0.20;;;22.30;58.90;;;;;;5031944;28;20044;-70
2021/06/08 08:59:09;;;;;;;0.38;0.20;;;22.50;58.20;;;;;;5043574;28;20144;-69
2021/06/08 09:01:38;;;;;;;0.25;0.20;;;22.60;57.80;;;;;;5036594;28;20176;-70
2021/06/08 09:04:06;;;;;;;0.10;0.10;;;22.80;57.80;;;;;;5031466;28;20145;-69
2021/06/08 09:06:32;;;;;;;0.20;0.20;;;23.10;58.20;;;;;;5029783;28;20057;-70
2021/06/08 09:09:00;;;;;;;0.30;0.20;;;23.20;55.70;;;;;;5031782;28;20477;-70
2021/06/08 09:11:31;;;;;;;0.75;0.20;;;23.10;54.80;;;;;;5031920;28;20354;-70
2021/06/08 09:14:00;;;;;;;0.10;0.10;;;23.10;55.10;;;;;;5031917;28;20045;-71
2021/06/08 09:16:26;;;;;;;0.20;0.20;;;23.10;54.70;;;;;;5032231;28;20041;-70
2021/06/08 09:18:53;;;;;;;0.20;0.20;;;23.20;55.00;;;;;;5031594;28;20053;-71
2021/06/08 09:21:23;;;;;;;1.17;0.20;;;23.40;55.20;;;;;;5032577;28;20645;-70
2021/06/08 09:23:50;;;;;;;0.08;0.08;;;23.60;55.50;;;;;;5030717;28;20057;-71
2021/06/08 09:26:17;;;;;;;0.20;0.20;;;23.80;55.50;;;;;;5031409;28;20501;-70
2021/06/08 09:28:45;;;;;;;0.17;0.10;;;24.00;55.20;;;;;;5031748;28;20065;-70
2021/06/08 09:31:23;;;;;;;0.45;0.10;;;24.20;54.10;;;;;;5033404;28;20041;-71
2021/06/08 09:33:52;;;;;;;0.10;0.10;;;24.30;53.70;;;;;;5031180;28;20048;-72
2021/06/08 09:36:27;;;;;;;0.08;0.08;;;24.40;52.30;;;;;;5031466;28;20425;-71
2021/06/08 09:38:59;;;;;;;0.32;0.10;;;24.40;52.20;;;;;;5031155;28;20041;-71
2021/06/08 09:41:37;;;;;;;0.17;0.13;;;24.40;52.40;;;;;;5031678;28;20049;-73
2021/06/08 09:44:07;;;;;;;0.10;0.10;;;24.50;52.50;;;;;;5031536;28;20049;-70
2021/06/08 09:46:54;;;;;;;0.15;0.15;;;24.60;51.40;;;;;;5032092;28;20452;-70
2021/06/08 09:49:40;;;;;;;0.20;0.10;;;24.50;49.80;;;;;;5030735;28;20195;-70
2021/06/08 09:52:08;;;;;;;0.50;0.20;;;24.50;50.10;;;;;;5031093;28;20049;-70
2021/06/08 09:54:38;;;;;;;0.20;0.20;;;24.50;50.40;;;;;;5033438;28;20183;-70
2021/06/08 09:57:17;;;;;;;0.20;0.15;;;24.40;50.00;;;;;;5033818;28;20049;-71
2021/06/08 09:59:58;;;;;;;0.20;0.20;;;24.40;50.40;;;;;;5031801;28;20451;-71
2021/06/08 10:02:28;;;;;;;0.10;0.10;;;24.40;50.20;;;;;;5031387;28;20045;-70
2021/06/08 10:05:21;;;;;;;0.08;0.03;;;24.50;50.50;;;;;;5034922;28;20041;-70
2021/06/08 10:07:50;;;;;;;0.30;0.20;;;24.60;50.30;;;;;;5026132;28;20416;-69
2021/06/08 10:10:22;;;;;;;0.00;0.00;;;24.70;48.80;;;;;;5032990;28;20412;-70
2021/06/08 10:13:06;;;;;;;0.10;0.10;;;24.60;48.30;;;;;;5020605;28;20532;-70
2021/06/08 10:15:35;;;;;;;0.10;0.10;;;24.60;47.40;;;;;;5018715;28;20070;-69
2021/06/08 10:18:06;;;;;;;0.20;0.00;;;24.60;47.50;;;;;;5019623;28;20050;-70
2021/06/08 10:20:37;;;;;;;0.47;0.10;;;24.60;47.70;;;;;;5015851;28;20053;-70
2021/06/08 10:23:28;;;;;;;0.00;0.00;;;24.60;48.20;;;;;;5024047;28;20042;-70
2021/06/08 10:25:57;;;;;;;0.00;0.00;;;24.60;47.70;;;;;;5029858;28;20519;-70
2021/06/08 10:28:24;;;;;;;0.00;0.00;;;24.70;47.00;;;;;;5027178;28;20120;-71
2021/06/08 10:30:51;;;;;;;0.10;0.10;;;24.70;47.50;;;;;;5032618;28;20053;-71
2021/06/08 10:33:21;;;;;;;0.30;0.13;;;24.60;47.30;;;;;;5035002;28;20494;-70
2021/06/08 10:35:49;;;;;;;0.30;0.20;;;24.40;47.20;;;;;;5034371;28;20041;-69
2021/06/08 10:38:17;;;;;;;0.70;0.10;;;24.30;48.10;;;;;;5038682;28;20042;-70
2021/06/08 10:40:45;;;;;;;0.13;0.10;;;24.40;48.10;;;;;;5040960;28;20142;-70
2021/06/08 10:43:22;;;;;;;0.17;0.17;;;24.40;47.50;;;;;;5042808;28;20133;-70
2021/06/08 10:45:52;;;;;;;0.35;0.20;;;24.40;48.00;;;;;;5036848;28;20125;-70
2021/06/08 10:48:31;;;;;;;0.10;0.10;;;24.50;47.60;;;;;;5039880;28;20127;-70
2021/06/08 10:51:14;;;;;;;0.10;0.10;;;24.50;47.40;;;;;;5030549;28;20056;-69
2021/06/08 10:53:48;;;;;;;0.10;0.10;;;24.40;47.60;;;;;;5035620;28;20570;-70
2021/06/08 10:56:23;;;;;;;0.10;0.10;;;24.40;47.10;;;;;;5039478;28;20052;-69
2021/06/08 10:59:02;;;;;;;0.20;0.15;;;24.30;46.00;;;;;;5019807;28;20065;-70
2021/06/08 11:01:50;;;;;;;0.10;0.10;;;24.20;47.40;;;;;;5021150;28;20037;-69
2021/06/08 11:04:24;;;;;;;0.55;0.10;;;24.30;48.40;;;;;;5035212;28;20053;-70
2021/06/08 11:06:59;;;;;;;0.10;0.10;;;24.40;48.70;;;;;;5036606;28;20128;-70
2021/06/08 11:09:28;;;;;;;0.10;0.10;;;24.50;48.60;;;;;;5035710;28;20084;-70
2021/06/08 11:12:05;;;;;;;0.10;0.10;;;24.50;47.10;;;;;;5027789;28;20042;-70
2021/06/08 11:17:01;;;;;;;0.22;0.10;;;24.70;46.00;;;;;;5036542;28;20045;-71
2021/06/08 11:19:49;;;;;;;0.00;0.00;;;24.80;46.30;;;;;;5037357;28;20065;-71
2021/06/08 11:22:32;;;;;;;0.10;0.10;;;24.80;46.40;;;;;;5033994;28;20751;-70
2021/06/08 11:25:00;;;;;;;0.10;0.10;;;24.80;46.20;;;;;;5033885;28;20053;-70
2021/06/08 11:28:04;;;;;;;0.10;0.10;;;24.80;46.40;;;;;;5035665;28;20056;-72
2021/06/08 11:30:40;;;;;;;0.00;0.00;;;24.80;46.50;;;;;;5034218;28;20100;-72
2021/06/08 11:33:25;;;;;;;0.17;0.17;;;24.80;46.10;;;;;;5034332;28;20049;-72
2021/06/08 11:35:51;;;;;;;0.43;0.10;;;24.70;46.00;;;;;;5034940;28;20045;-72
2021/06/08 11:38:24;;;;;;;0.45;0.10;;;24.70;46.80;;;;;;5020939;28;20057;-72
2021/06/08 11:40:56;;;;;;;0.10;0.00;;;24.60;46.80;;;;;;5013520;28;20501;-72
2021/06/08 11:43:22;;;;;;;0.10;0.10;;;24.50;47.10;;;;;;5017017;28;20046;-71
2021/06/08 11:46:13;;;;;;;0.85;0.25;;;24.50;46.90;;;;;;5016071;28;20049;-71
2021/06/08 11:48:43;;;;;;;0.00;0.00;;;24.50;46.30;;;;;;5014930;28;20046;-71
2021/06/08 11:51:10;;;;;;;;;;;24.50;47.10;;;;;;5019508;28;20488;-69
2021/06/08 11:54:00;;;;;;;0.10;0.10;;;24.50;46.80;;;;;;5017928;28;20392;-70
2021/06/08 11:56:56;;;;;;;0.30;0.20;;;24.50;47.60;;;;;;5039748;28;20497;-69
2021/06/08 11:59:33;;;;;;;0.22;0.22;;;24.70;47.10;;;;;;5033296;28;20187;-70
2021/06/08 12:02:01;;;;;;;0.10;0.10;;;24.70;46.80;;;;;;5033464;28;20046;-70
2021/06/08 12:04:30;;;;;;;0.00;0.00;;;24.70;46.70;;;;;;5032778;28;20046;-71
2021/06/08 12:07:06;;;;;;;0.00;0.00;;;24.80;46.40;;;;;;5018603;28;20365;-71
2021/06/08 12:09:47;;;;;;;0.15;0.13;;;24.80;45.70;;;;;;5033691;28;20056;-70
2021/06/08 12:12:15;;;;;;;0.13;0.13;;;24.80;45.90;;;;;;5027249;28;20056;-71
2021/06/08 12:14:50;;;;;;;0.10;0.10;;;24.80;46.00;;;;;;5019900;28;20171;-71
2021/06/08 12:17:17;;;;;;;0.08;0.08;;;24.70;46.00;;;;;;5030841;28;20048;-71
2021/06/08 12:19:44;;;;;;;0.10;0.10;;;24.70;46.20;;;;;;5039738;28;20091;-71
2021/06/08 12:22:25;;;;;;;0.00;0.00;;;24.70;46.70;;;;;;5025017;28;20486;-72
2021/06/08 12:24:57;;;;;;;0.10;0.10;;;24.80;46.90;;;;;;5019412;28;20050;-71
2021/06/08 12:27:33;;;;;;;0.40;0.20;;;24.90;47.20;;;;;;5033136;28;20051;-72
2021/06/08 12:30:00;;;;;;;0.00;0.00;;;25.10;46.70;;;;;;5030179;28;20053;-71
2021/06/08 12:32:28;;;;;;;0.15;0.10;;;25.20;45.90;;;;;;5026210;28;20070;-70
2021/06/08 12:34:54;;;;;;;0.13;0.10;;;25.30;45.40;;;;;;5015244;28;20424;-71
2021/06/08 12:37:25;;;;;;;0.00;0.00;;;25.40;44.60;;;;;;5021848;28;20126;-71
2021/06/08 12:39:57;;;;;;;0.00;0.00;;;25.40;44.00;;;;;;5032517;28;20046;-72
2021/06/08 12:42:24;;;;;;;0.22;0.10;;;25.50;43.30;;;;;;5025915;28;20049;-72
2021/06/08 12:44:53;;;;;;;0.30;0.20;;;25.50;43.20;;;;;;5019821;28;20096;-71
2021/06/08 12:47:31;;;;;;;0.10;0.10;;;25.50;42.70;;;;;;5017920;28;20049;-71
2021/06/08 12:49:59;;;;;;;0.00;0.00;;;25.50;42.30;;;;;;5030748;28;20056;-71
2021/06/08 12:52:26;;;;;;;0.10;0.10;;;25.50;41.10;;;;;;5038422;28;20049;-71
2021/06/08 12:54:54;;;;;;;0.10;0.10;;;25.50;41.40;;;;;;5028651;28;20534;-70
2021/06/08 12:57:24;;;;;;;0.57;0.10;;;25.50;41.60;;;;;;5027661;28;20041;-70
2021/06/08 13:00:07;;;;;;;0.20;0.10;;;25.50;41.50;;;;;;5019749;28;20045;-71
2021/06/08 13:02:35;;;;;;;0.95;0.10;;;25.50;41.70;;;;;;5024944;28;20045;-70
2021/06/08 13:05:05;;;;;;;0.08;0.08;;;25.50;41.40;;;;;;5019527;28;20045;-71
2021/06/08 13:07:35;;;;;;;0.10;0.10;;;25.50;42.10;;;;;;5032911;28;20048;-71